Terminal Aerodrome Forecast
Issued by NWS Omaha/Valley, NE

Home | Current Version | Previous Version | Graphics & Text | Print | Product List | Glossary On
Versions: 1 2 3 4 5 6 7 8 9 10 11 12 13 14 15 16 17 18 19
000
FTUS43 KOAX 171120
TAFOFK
TAF
KOFK 171120Z 1712/1812 33004KT P6SM SCT250
     FM172100 11006KT P6SM BKN150 PROB30 1806/1809 4SM -TSRA
      OVC025CB
     FM180900 13005KT P6SM -SHRA VCTS OVC040CB
     FM181100 13005KT P6SM OVC025 PROB30 1811/1812 4SM -TSRA
      OVC015CB=

USA.gov is the U.S. government's official web portal to all federal, state and local government web resources and services.